.
WxDataArchive / Data Records for 2009-05-06
2009-05-05 May 2009 2009-05-07

Data Records for Wednesday, 06 May 2009

Time	Temp	Chill	HIndex	Humid	Dewpt	 Wind 	HiWind	WindDir	Rain 	Barom 
-----	----	-----	------	-----	-----	------	------	-------	-----	----- 
00:00	53.6	53.6	53.6	73	45.2	0	2	90	0.00	29.956 
00:05	53.6	53.6	53.6	73	45.2	0	1	90	0.00	29.956 
00:10	53.6	53.6	53.6	73	45.2	0	1	90	0.00	29.956 
00:15	53.6	53.6	53.6	74	45.5	0	0	---	0.00	29.953 
00:20	53.3	53.3	53.3	74	45.2	0	1	90	0.00	29.953 
00:25	53.2	53.2	53.2	74	45.1	0	1	90	0.00	29.953 
00:30	53.1	53.1	53.1	75	45.4	0	0	---	0.00	29.956 
00:35	52.8	52.8	52.8	75	45.1	0	0	---	0.00	29.956 
00:40	52.5	52.5	52.5	76	45.2	0	0	---	0.00	29.956 
00:45	52.2	52.2	52.2	77	45.2	0	0	---	0.00	29.952 
00:50	51.9	51.9	51.9	77	44.9	0	0	---	0.00	29.952 
00:55	51.7	51.7	51.7	78	45.1	0	0	---	0.00	29.952 
01:00	51.6	51.6	51.6	79	45.3	0	0	---	0.00	29.948 
01:05	51.4	51.4	51.4	79	45.1	0	0	---	0.00	29.948 
01:10	51.3	51.3	51.3	79	45.0	0	0	---	0.00	29.948 
01:15	51.0	51.0	51.0	80	45.0	0	1	90	0.00	29.945 
01:20	51.1	51.1	51.1	81	45.5	0	1	90	0.00	29.945 
01:25	51.3	51.3	51.3	81	45.7	0	0	---	0.00	29.945 
01:30	51.4	51.4	51.4	80	45.4	0	1	90	0.00	29.943 
01:35	51.4	51.4	51.4	81	45.8	0	0	---	0.00	29.943 
01:40	51.3	51.3	51.3	81	45.7	0	0	---	0.00	29.943 
01:45	51.1	51.1	51.1	81	45.5	0	0	---	0.00	29.940 
01:50	51.0	51.0	51.0	81	45.4	0	0	---	0.00	29.940 
01:55	50.7	50.7	50.7	81	45.1	0	0	---	0.00	29.940 
02:00	50.4	50.4	50.4	82	45.1	0	0	---	0.00	29.941 
02:05	50.2	50.2	50.2	82	44.9	0	0	---	0.00	29.941 
02:10	49.9	49.9	49.9	82	44.6	0	0	---	0.00	29.941 
02:15	49.8	49.8	49.8	83	44.8	0	0	---	0.00	29.943 
02:20	49.6	49.6	49.6	84	45.0	0	0	---	0.00	29.943 
02:25	49.5	49.5	49.5	84	44.9	0	0	---	0.00	29.943 
02:30	49.4	49.4	49.4	84	44.8	0	0	---	0.00	29.941 
02:35	49.2	49.2	49.2	85	44.9	0	0	---	0.00	29.941 
02:40	49.1	49.1	49.1	85	44.8	0	0	---	0.00	29.941 
02:45	48.9	48.9	48.9	85	44.6	0	0	---	0.00	29.941 
02:50	48.8	48.8	48.8	86	44.8	0	0	---	0.00	29.941 
02:55	48.6	48.6	48.6	86	44.6	0	0	---	0.00	29.941 
03:00	48.5	48.5	48.5	86	44.5	0	0	---	0.00	29.936 
03:05	48.3	48.3	48.3	87	44.6	0	0	---	0.00	29.936 
03:10	48.3	48.3	48.3	87	44.6	0	0	---	0.00	29.936 
03:15	48.2	48.2	48.2	88	44.8	0	0	---	0.00	29.936 
03:20	48.0	48.0	48.0	88	44.6	0	0	---	0.00	29.936 
03:25	48.0	48.0	48.0	88	44.6	0	0	---	0.00	29.936 
03:30	47.9	47.9	47.9	88	44.5	0	0	---	0.00	29.928 
03:35	47.7	47.7	47.7	89	44.6	0	0	---	0.00	29.928 
03:40	47.6	47.6	47.6	89	44.5	0	0	---	0.00	29.928 
03:45	47.6	47.6	47.6	89	44.5	0	0	---	0.00	29.925 
03:50	47.4	47.4	47.4	89	44.3	0	0	---	0.00	29.925 
03:55	47.4	47.4	47.4	90	44.6	0	0	---	0.00	29.925 
04:00	47.4	47.4	47.4	90	44.6	0	0	---	0.00	29.922 
04:05	47.4	47.4	47.4	90	44.6	0	0	---	0.00	29.922 
04:10	47.4	47.4	47.4	90	44.6	0	0	---	0.00	29.922 
04:15	47.3	47.3	47.3	90	44.5	0	0	---	0.00	29.922 
04:20	47.1	47.1	47.1	90	44.3	0	0	---	0.00	29.922 
04:25	47.0	47.0	47.0	90	44.2	0	0	---	0.00	29.922 
04:30	47.0	47.0	47.0	90	44.2	0	0	---	0.00	29.920 
04:35	46.7	46.7	46.7	90	43.9	0	0	---	0.00	29.920 
04:40	46.7	46.7	46.7	90	43.9	0	0	---	0.00	29.920 
04:45	46.5	46.5	46.5	91	44.0	0	0	---	0.00	29.917 
04:50	46.7	46.7	46.7	92	44.5	0	1	90	0.00	29.917 
04:55	47.0	47.0	47.0	92	44.8	0	1	90	0.00	29.917 
05:00	47.1	47.1	47.1	91	44.6	0	1	90	0.00	29.914 
05:05	47.3	47.3	47.3	91	44.8	0	1	90	0.00	29.914 
05:10	47.1	47.1	47.1	91	44.6	0	0	---	0.00	29.914 
05:15	47.1	47.1	47.1	91	44.6	0	0	---	0.00	29.915 
05:20	47.0	47.0	47.0	91	44.5	0	0	---	0.00	29.915 
05:25	46.8	46.8	46.8	91	44.3	0	0	---	0.00	29.915 
05:30	46.8	46.8	46.8	91	44.3	0	0	---	0.00	29.915 
05:35	46.8	46.8	46.8	91	44.3	0	1	90	0.00	29.915 
05:40	47.0	47.0	47.0	92	44.8	0	1	90	0.00	29.915 
05:45	47.3	47.3	47.3	92	45.1	0	1	90	0.00	29.920 
05:50	47.3	47.3	47.3	91	44.8	0	0	---	0.00	29.920 
05:55	47.4	47.4	47.4	91	44.9	0	1	90	0.00	29.920 
06:00	47.3	47.3	47.3	91	44.8	0	0	---	0.00	29.921 
06:05	47.3	47.3	47.3	91	44.8	0	0	---	0.00	29.921 
06:10	47.3	47.3	47.3	91	44.8	0	0	---	0.00	29.921 
06:15	47.4	47.4	47.4	91	44.9	0	1	90	0.00	29.916 
06:20	47.6	47.6	47.6	91	45.1	0	1	90	0.00	29.916 
06:25	47.6	47.6	47.6	91	45.1	0	1	90	0.00	29.916 
06:30	47.7	47.7	47.7	91	45.2	0	1	90	0.00	29.913 
06:35	47.9	47.9	47.9	91	45.4	0	1	90	0.00	29.913 
06:40	47.9	47.9	47.9	91	45.4	0	1	90	0.00	29.913 
06:45	48.0	48.0	48.0	90	45.2	0	1	90	0.00	29.914 
06:50	48.0	48.0	48.0	90	45.2	0	0	---	0.00	29.914 
06:55	48.0	48.0	48.0	90	45.2	0	0	---	0.00	29.914 
07:00	48.0	48.0	48.0	90	45.2	0	0	---	0.00	29.917 
07:05	48.0	48.0	48.0	90	45.2	0	1	90	0.00	29.917 
07:10	48.2	48.2	48.2	90	45.4	0	0	---	0.00	29.917 
07:15	48.3	48.3	48.3	90	45.5	0	1	90	0.00	29.918 
07:20	48.5	48.5	48.5	90	45.7	0	1	90	0.00	29.918 
07:25	48.6	48.6	48.6	90	45.8	0	1	90	0.00	29.918 
07:30	48.8	48.8	48.8	90	46.0	0	1	90	0.00	29.918 
07:35	48.9	48.9	48.9	90	46.1	0	1	90	0.00	29.918 
07:40	49.2	49.2	49.2	89	46.1	0	1	90	0.00	29.918 
07:45	49.5	49.5	49.5	89	46.4	0	1	90	0.00	29.919 
07:50	49.8	49.8	49.8	88	46.4	1	2	90	0.00	29.919 
07:55	50.1	50.1	50.1	88	46.7	1	2	90	0.00	29.919 
08:00	50.4	50.4	50.4	88	47.0	0	3	90	0.00	29.914 
08:05	50.5	50.5	50.5	88	47.1	1	4	90	0.00	29.914 
08:10	50.8	50.8	50.8	88	47.4	1	2	90	0.00	29.914 
08:15	51.1	51.1	51.1	87	47.4	1	4	90	0.00	29.913 
08:20	51.4	51.4	51.4	87	47.7	1	3	90	0.00	29.913 
08:25	51.7	51.7	51.7	87	48.0	1	2	90	0.00	29.913 
08:30	52.2	52.2	52.2	86	48.1	1	2	90	0.00	29.914 
08:35	52.6	52.6	52.6	86	48.5	0	3	90	0.00	29.914 
08:40	53.2	53.2	53.2	85	48.8	0	2	90	0.00	29.914 
08:45	53.8	53.8	53.8	85	49.4	0	2	90	0.00	29.909 
08:50	54.4	54.4	54.4	84	49.7	1	4	90	0.00	29.909 
08:55	54.8	54.8	54.8	82	49.4	1	4	90	0.00	29.909 
09:00	55.6	55.6	55.6	81	49.9	1	3	90	0.00	29.910 
09:05	56.0	56.0	56.0	80	49.9	1	3	90	0.00	29.910 
09:10	56.5	56.5	56.5	79	50.1	1	3	90	0.00	29.910 
09:15	56.7	56.7	56.7	78	49.9	1	3	90	0.00	29.910 
09:20	57.0	57.0	57.0	77	49.9	1	3	90	0.00	29.910 
09:25	57.3	57.3	57.3	77	50.1	1	3	90	0.00	29.910 
09:30	57.6	57.6	57.6	77	50.4	1	3	90	0.00	29.902 
09:35	58.0	58.0	58.0	77	50.8	1	3	90	0.00	29.902 
09:40	58.3	58.3	58.3	77	51.1	1	2	90	0.00	29.902 
09:45	58.7	58.7	58.7	76	51.2	1	3	90	0.00	29.895 
09:50	59.0	59.0	59.0	76	51.4	0	2	90	0.00	29.895 
09:55	59.5	59.5	59.5	75	51.6	1	4	90	0.00	29.895 
10:00	59.9	59.9	59.9	73	51.2	1	4	90	0.00	29.885 
10:05	60.2	60.2	60.2	72	51.1	2	4	90	0.00	29.885 
10:10	60.5	60.5	60.5	72	51.4	1	3	112	0.00	29.885 
10:15	61.0	61.0	61.0	70	51.1	1	3	135	0.00	29.883 
10:20	61.6	61.6	61.6	69	51.3	0	2	135	0.00	29.883 
10:25	62.3	62.3	62.3	69	52.0	1	4	135	0.00	29.883 
10:30	62.6	62.6	62.6	66	51.1	1	3	90	0.00	29.875 
10:35	62.9	62.9	62.9	65	50.9	1	3	90	0.00	29.875 
10:40	63.1	63.1	63.1	65	51.1	1	2	90	0.00	29.875 
10:45	63.4	63.4	63.4	64	51.0	1	3	135	0.00	29.873 
10:50	63.5	63.5	63.5	64	51.1	1	2	112	0.00	29.873 
10:55	63.7	63.7	63.7	62	50.4	1	4	112	0.00	29.873 
11:00	63.9	63.9	63.9	61	50.2	2	4	112	0.00	29.875 
11:05	64.0	64.0	64.0	62	50.7	1	5	112	0.00	29.875 
11:10	64.3	64.3	64.3	61	50.6	1	3	112	0.00	29.875 
11:15	64.7	64.7	64.7	62	51.4	1	3	112	0.00	29.880 
11:20	64.8	64.8	64.8	60	50.6	1	4	90	0.00	29.880 
11:25	65.0	65.0	65.0	59	50.3	2	4	135	0.00	29.880 
11:30	65.0	65.0	65.0	60	50.8	1	3	90	0.00	29.877 
11:35	65.2	65.2	65.2	58	50.0	1	3	90	0.00	29.877 
11:40	65.2	65.2	65.2	60	51.0	0	2	90	0.00	29.877 
11:45	65.5	65.5	65.5	60	51.2	0	2	90	0.00	29.876 
11:50	65.6	65.6	65.6	58	50.4	0	3	112	0.00	29.876 
11:55	65.8	65.8	65.8	58	50.6	0	1	112	0.00	29.876 
12:00	65.8	65.8	65.8	59	51.1	1	2	112	0.00	29.868 
12:05	65.8	65.8	65.8	58	50.6	0	2	112	0.00	29.868 
12:10	65.8	65.8	65.8	58	50.6	1	4	112	0.00	29.868 
12:15	66.0	66.0	66.0	58	50.8	1	2	112	0.00	29.865 
12:20	66.0	66.0	66.0	58	50.8	0	2	112	0.00	29.865 
12:25	66.1	66.1	66.1	57	50.4	0	2	112	0.00	29.865 
12:30	66.3	66.3	66.3	58	51.1	0	2	68	0.00	29.865 
12:35	66.3	66.3	66.3	56	50.1	1	3	90	0.00	29.865 
12:40	66.4	66.4	66.4	56	50.2	1	3	112	0.00	29.865 
12:45	66.3	66.3	66.3	55	49.6	2	5	112	0.00	29.865 
12:50	66.3	66.3	66.3	56	50.1	1	4	112	0.00	29.865 
12:55	66.1	66.1	66.1	58	50.9	3	11	90	0.00	29.865 
13:00	65.5	65.5	65.5	61	51.7	2	6	112	0.00	29.878 
13:05	64.7	64.7	64.7	64	52.2	2	6	90	0.00	29.878 
13:10	64.0	64.0	64.0	67	52.8	1	5	90	0.00	29.878 
13:15	63.4	63.4	63.4	71	53.8	2	6	112	0.00	29.880 
13:20	62.6	62.6	62.6	73	53.8	3	9	90	0.00	29.880 
13:25	62.0	62.0	62.0	76	54.3	2	5	90	0.00	29.880 
13:30	61.6	61.6	61.6	78	54.7	2	6	90	0.00	29.870 
13:35	61.5	61.5	61.5	80	55.3	2	5	90	0.00	29.870 
13:40	61.2	61.2	61.2	81	55.3	4	9	90	0.00	29.870 
13:45	60.9	60.9	60.9	82	55.4	3	6	90	0.00	29.868 
13:50	60.7	60.7	60.7	83	55.5	2	7	90	0.00	29.868 
13:55	60.5	60.5	60.5	83	55.3	3	7	90	0.00	29.868 
14:00	60.4	60.4	60.4	83	55.2	3	6	90	0.00	29.857 
14:05	60.4	60.4	60.4	83	55.2	2	4	90	0.00	29.857 
14:10	60.2	60.2	60.2	84	55.3	2	5	112	0.00	29.857 
14:15	59.9	59.9	59.9	83	54.7	2	10	90	0.00	29.857 
14:20	59.8	59.8	59.8	82	54.3	1	5	112	0.00	29.857 
14:25	59.6	59.6	59.6	81	53.8	1	5	90	0.00	29.857 
14:30	59.5	59.5	59.5	82	54.0	1	4	270	0.00	29.862 
14:35	59.3	59.3	59.3	83	54.1	0	1	270	0.00	29.862 
14:40	59.2	59.2	59.2	82	53.7	1	4	90	0.00	29.862 
14:45	59.0	59.0	59.0	84	54.2	0	3	90	0.01	29.871 
14:50	58.9	58.9	58.9	85	54.4	1	5	90	0.00	29.871 
14:55	58.7	58.7	58.7	86	54.5	1	5	135	0.01	29.871 
15:00	58.7	58.7	58.7	87	54.8	0	2	90	0.00	29.872 
15:05	58.7	58.7	58.7	88	55.2	0	1	90	0.01	29.872 
15:10	58.9	58.9	58.9	88	55.3	0	1	90	0.00	29.872 
15:15	59.0	59.0	59.0	88	55.4	0	2	90	0.01	29.872 
15:20	58.9	58.9	58.9	89	55.7	0	1	90	0.00	29.872 
15:25	59.0	59.0	59.0	89	55.8	0	1	90	0.00	29.872 
15:30	58.9	58.9	58.9	88	55.3	0	0	---	0.00	29.869 
15:35	59.0	59.0	59.0	89	55.8	0	2	90	0.00	29.869 
15:40	59.0	59.0	59.0	88	55.4	0	1	90	0.01	29.869 
15:45	59.0	59.0	59.0	88	55.4	0	1	90	0.00	29.859 
15:50	59.2	59.2	59.2	89	56.0	0	2	90	0.00	29.859 
15:55	59.3	59.3	59.3	89	56.1	0	2	90	0.00	29.859 
16:00	59.5	59.5	59.5	88	55.9	0	3	90	0.00	29.854 
16:05	59.6	59.6	59.6	88	56.0	1	3	90	0.00	29.854 
16:10	59.8	59.8	59.8	88	56.2	1	3	112	0.00	29.854 
16:15	59.6	59.6	59.6	86	55.4	1	4	112	0.00	29.842 
16:20	59.8	59.8	59.8	87	55.9	1	4	112	0.00	29.842 
16:25	59.9	59.9	59.9	87	56.0	2	4	90	0.00	29.842 
16:30	60.2	60.2	60.2	86	56.0	1	3	90	0.00	29.830 
16:35	60.1	60.1	60.1	84	55.2	2	4	90	0.00	29.830 
16:40	60.1	60.1	60.1	84	55.2	1	3	112	0.00	29.830 
16:45	59.9	59.9	59.9	83	54.7	1	3	112	0.00	29.828 
16:50	59.8	59.8	59.8	83	54.6	2	7	90	0.00	29.828 
16:55	59.8	59.8	59.8	83	54.6	2	4	112	0.00	29.828 
17:00	59.8	59.8	59.8	83	54.6	1	3	112	0.00	29.826 
17:05	59.9	59.9	59.9	83	54.7	1	3	135	0.00	29.826 
17:10	59.9	59.9	59.9	83	54.7	1	3	112	0.00	29.826 
17:15	59.8	59.8	59.8	81	54.0	2	5	112	0.00	29.820 
17:20	59.8	59.8	59.8	81	54.0	1	4	112	0.00	29.820 
17:25	59.8	59.8	59.8	81	54.0	1	5	68	0.00	29.820 
17:30	59.6	59.6	59.6	81	53.8	2	5	90	0.00	29.811 
17:35	59.8	59.8	59.8	81	54.0	1	3	112	0.00	29.811 
17:40	60.2	60.2	60.2	82	54.7	0	3	135	0.00	29.811 
17:45	60.4	60.4	60.4	81	54.5	1	5	112	0.00	29.811 
17:50	60.2	60.2	60.2	81	54.3	1	4	90	0.00	29.811 
17:55	60.4	60.4	60.4	82	54.9	1	3	90	0.00	29.811 
18:00	60.2	60.2	60.2	81	54.3	1	3	90	0.00	29.811 
18:05	60.2	60.2	60.2	80	54.0	1	3	112	0.00	29.811 
18:10	60.2	60.2	60.2	80	54.0	1	2	112	0.00	29.811 
18:15	60.2	60.2	60.2	80	54.0	1	4	112	0.00	29.809 
18:20	60.1	60.1	60.1	80	53.9	1	3	112	0.00	29.809 
18:25	59.9	59.9	59.9	80	53.7	1	4	112	0.00	29.809 
18:30	59.8	59.8	59.8	80	53.6	1	4	158	0.00	29.812 
18:35	59.8	59.8	59.8	80	53.6	1	2	90	0.00	29.812 
18:40	59.8	59.8	59.8	79	53.3	1	2	90	0.00	29.812 
18:45	59.8	59.8	59.8	80	53.6	1	2	90	0.00	29.808 
18:50	59.8	59.8	59.8	80	53.6	1	3	90	0.00	29.808 
18:55	59.6	59.6	59.6	78	52.7	1	4	112	0.00	29.808 
19:00	59.6	59.6	59.6	78	52.7	1	3	112	0.00	29.804 
19:05	59.6	59.6	59.6	78	52.7	1	2	112	0.00	29.804 
19:10	59.6	59.6	59.6	79	53.1	1	3	112	0.00	29.804 
19:15	59.6	59.6	59.6	79	53.1	2	5	112	0.00	29.806 
19:20	59.5	59.5	59.5	80	53.3	1	3	90	0.00	29.806 
19:25	59.3	59.3	59.3	77	52.1	1	5	112	0.00	29.806 
19:30	59.2	59.2	59.2	77	52.0	1	3	112	0.00	29.798 
19:35	59.0	59.0	59.0	77	51.8	1	2	112	0.00	29.798 
19:40	59.0	59.0	59.0	78	52.1	0	2	112	0.00	29.798 
19:45	58.9	58.9	58.9	78	52.0	1	3	112	0.00	29.794 
19:50	58.7	58.7	58.7	79	52.2	0	2	112	0.00	29.794 
19:55	58.7	58.7	58.7	80	52.5	1	3	112	0.00	29.794 
20:00	58.6	58.6	58.6	81	52.8	0	2	112	0.00	29.794 
20:05	58.4	58.4	58.4	81	52.6	0	1	112	0.00	29.794 
20:10	58.3	58.3	58.3	82	52.8	0	1	112	0.00	29.794 
20:15	58.1	58.1	58.1	83	53.0	0	2	135	0.00	29.788 
20:20	58.1	58.1	58.1	83	53.0	0	1	135	0.00	29.788 
20:25	58.0	58.0	58.0	84	53.2	0	1	135	0.00	29.788 
20:30	57.8	57.8	57.8	84	53.0	0	1	135	0.00	29.793 
20:35	57.6	57.6	57.6	84	52.8	0	1	135	0.00	29.793 
20:40	57.6	57.6	57.6	85	53.1	0	0	---	0.00	29.793 
20:45	57.5	57.5	57.5	85	53.0	0	0	---	0.00	29.802 
20:50	57.3	57.3	57.3	86	53.1	0	0	---	0.00	29.802 
20:55	57.2	57.2	57.2	86	53.0	0	0	---	0.00	29.802 
21:00	57.0	57.0	57.0	86	52.9	0	0	---	0.00	29.806 
21:05	56.9	56.9	56.9	86	52.8	0	0	---	0.00	29.806 
21:10	56.7	56.7	56.7	87	52.9	0	0	---	0.00	29.806 
21:15	56.6	56.6	56.6	87	52.8	0	0	---	0.00	29.802 
21:20	56.5	56.5	56.5	88	53.0	0	0	---	0.00	29.802 
21:25	56.3	56.3	56.3	88	52.8	0	0	---	0.00	29.802 
21:30	56.3	56.3	56.3	88	52.8	0	0	---	0.00	29.804 
21:35	56.2	56.2	56.2	88	52.7	0	0	---	0.00	29.804 
21:40	56.0	56.0	56.0	88	52.5	0	0	---	0.00	29.804 
21:45	55.9	55.9	55.9	89	52.7	0	0	---	0.00	29.814 
21:50	55.7	55.7	55.7	89	52.5	0	0	---	0.00	29.814 
21:55	55.6	55.6	55.6	90	52.7	0	0	---	0.00	29.814 
22:00	55.4	55.4	55.4	90	52.5	0	0	---	0.00	29.818 
22:05	55.3	55.3	55.3	90	52.4	0	0	---	0.00	29.818 
22:10	55.1	55.1	55.1	90	52.2	0	0	---	0.00	29.818 
22:15	55.0	55.0	55.0	90	52.1	0	0	---	0.00	29.815 
22:20	54.7	54.7	54.7	90	51.8	0	0	---	0.00	29.815 
22:25	54.4	54.4	54.4	91	51.8	0	0	---	0.00	29.815 
22:30	54.1	54.1	54.1	91	51.5	0	0	---	0.00	29.812 
22:35	53.8	53.8	53.8	91	51.2	0	0	---	0.00	29.812 
22:40	53.5	53.5	53.5	91	50.9	0	0	---	0.00	29.812 
22:45	53.3	53.3	53.3	91	50.7	0	1	135	0.00	29.813 
22:50	53.1	53.1	53.1	92	50.8	0	0	---	0.00	29.813 
22:55	52.8	52.8	52.8	92	50.5	0	0	---	0.00	29.813 
23:00	52.5	52.5	52.5	92	50.2	0	0	---	0.00	29.817 
23:05	52.2	52.2	52.2	92	49.9	0	0	---	0.00	29.817 
23:10	52.0	52.0	52.0	92	49.7	0	0	---	0.00	29.817 
23:15	51.9	51.9	51.9	92	49.6	0	0	---	0.00	29.819 
23:20	51.6	51.6	51.6	92	49.4	0	0	---	0.00	29.819 
23:25	51.4	51.4	51.4	92	49.2	0	0	---	0.00	29.819 
23:30	51.1	51.1	51.1	92	48.9	0	0	---	0.00	29.827 
23:35	51.0	51.0	51.0	93	49.0	0	0	---	0.00	29.827 
23:40	50.8	50.8	50.8	93	48.8	0	0	---	0.00	29.827 
23:45	50.7	50.7	50.7	93	48.7	0	0	---	0.00	29.832 
23:50	50.5	50.5	50.5	93	48.6	0	0	---	0.00	29.832 
23:55	50.4	50.4	50.4	93	48.5	0	0	---	0.00	29.832 

CoCoRaHS
IN-AL-39
A2 Web Hosting
Creative Commons License
GoDaddy
search engine by freefind advanced

loaded 2018-11-20 02:48:39 • last modified 2010-11-18 10:43:29
Privacy PolicyDisclaimer
• wx.awcolley.com is powered by PmWiki v.2002016 •
• all content (unless otherwise noted) © 2018 A W Colley